sensor_id;sensor_type;location;lat;lon;timestamp;temperature;humidity
72905;DHT22;61048;52.162;4.516;2023-06-19T00:01:44;25.70;47.90
72905;DHT22;61048;52.162;4.516;2023-06-19T00:04:11;25.70;48.10
72905;DHT22;61048;52.162;4.516;2023-06-19T00:06:37;25.70;48.30
72905;DHT22;61048;52.162;4.516;2023-06-19T00:09:06;25.80;48.20
72905;DHT22;61048;52.162;4.516;2023-06-19T00:11:33;25.80;48.30
72905;DHT22;61048;52.162;4.516;2023-06-19T00:14:00;25.80;48.30
72905;DHT22;61048;52.162;4.516;2023-06-19T00:16:26;25.80;48.30
72905;DHT22;61048;52.162;4.516;2023-06-19T00:18:55;25.80;48.40
72905;DHT22;61048;52.162;4.516;2023-06-19T00:21:22;25.80;48.60
72905;DHT22;61048;52.162;4.516;2023-06-19T00:23:50;25.80;48.50
72905;DHT22;61048;52.162;4.516;2023-06-19T00:26:17;25.80;48.60
72905;DHT22;61048;52.162;4.516;2023-06-19T00:28:45;25.80;48.60
72905;DHT22;61048;52.162;4.516;2023-06-19T00:31:14;25.80;48.70
72905;DHT22;61048;52.162;4.516;2023-06-19T00:33:42;25.80;48.80
72905;DHT22;61048;52.162;4.516;2023-06-19T00:36:10;25.90;48.90
72905;DHT22;61048;52.162;4.516;2023-06-19T00:38:37;25.90;48.90
72905;DHT22;61048;52.162;4.516;2023-06-19T00:41:04;25.90;49.00
72905;DHT22;61048;52.162;4.516;2023-06-19T00:43:32;25.90;49.20
72905;DHT22;61048;52.162;4.516;2023-06-19T00:45:59;25.90;49.00
72905;DHT22;61048;52.162;4.516;2023-06-19T00:48:27;25.90;49.10
72905;DHT22;61048;52.162;4.516;2023-06-19T00:50:56;25.90;49.10
72905;DHT22;61048;52.162;4.516;2023-06-19T00:53:25;25.90;49.10
72905;DHT22;61048;52.162;4.516;2023-06-19T00:55:53;25.90;49.20
72905;DHT22;61048;52.162;4.516;2023-06-19T00:58:22;25.90;49.20
72905;DHT22;61048;52.162;4.516;2023-06-19T01:00:49;25.90;49.30
72905;DHT22;61048;52.162;4.516;2023-06-19T01:03:16;25.90;49.20
72905;DHT22;61048;52.162;4.516;2023-06-19T01:05:43;25.90;49.40
72905;DHT22;61048;52.162;4.516;2023-06-19T01:08:21;25.90;49.40
72905;DHT22;61048;52.162;4.516;2023-06-19T01:10:56;25.90;49.30
72905;DHT22;61048;52.162;4.516;2023-06-19T01:13:28;26.00;49.40
72905;DHT22;61048;52.162;4.516;2023-06-19T01:15:56;26.00;49.20
72905;DHT22;61048;52.162;4.516;2023-06-19T01:18:24;26.00;49.30
72905;DHT22;61048;52.162;4.516;2023-06-19T01:20:52;26.00;49.30
72905;DHT22;61048;52.162;4.516;2023-06-19T01:23:20;26.00;49.30
72905;DHT22;61048;52.162;4.516;2023-06-19T01:25:47;26.00;49.40
72905;DHT22;61048;52.162;4.516;2023-06-19T01:28:14;26.00;49.40
72905;DHT22;61048;52.162;4.516;2023-06-19T01:30:42;26.00;49.50
72905;DHT22;61048;52.162;4.516;2023-06-19T01:33:12;26.00;49.50
72905;DHT22;61048;52.162;4.516;2023-06-19T01:35:42;26.00;49.50
72905;DHT22;61048;52.162;4.516;2023-06-19T01:38:10;26.00;49.50
72905;DHT22;61048;52.162;4.516;2023-06-19T01:40:41;26.00;49.60
72905;DHT22;61048;52.162;4.516;2023-06-19T01:43:08;26.00;49.50
72905;DHT22;61048;52.162;4.516;2023-06-19T01:45:36;26.00;49.70
72905;DHT22;61048;52.162;4.516;2023-06-19T01:48:04;26.00;49.40
72905;DHT22;61048;52.162;4.516;2023-06-19T01:50:31;26.00;49.60
72905;DHT22;61048;52.162;4.516;2023-06-19T01:52:57;26.00;49.70
72905;DHT22;61048;52.162;4.516;2023-06-19T01:55:24;26.00;49.70
72905;DHT22;61048;52.162;4.516;2023-06-19T01:57:52;26.00;49.80
72905;DHT22;61048;52.162;4.516;2023-06-19T02:00:19;26.00;49.80
72905;DHT22;61048;52.162;4.516;2023-06-19T02:02:46;26.00;49.80
72905;DHT22;61048;52.162;4.516;2023-06-19T02:05:14;26.00;49.80
72905;DHT22;61048;52.162;4.516;2023-06-19T02:07:40;26.00;50.00
72905;DHT22;61048;52.162;4.516;2023-06-19T02:10:08;26.00;49.80
72905;DHT22;61048;52.162;4.516;2023-06-19T02:12:35;26.00;50.10
72905;DHT22;61048;52.162;4.516;2023-06-19T02:15:04;26.00;50.10
72905;DHT22;61048;52.162;4.516;2023-06-19T02:17:31;26.00;50.10
72905;DHT22;61048;52.162;4.516;2023-06-19T02:19:58;26.00;50.00
72905;DHT22;61048;52.162;4.516;2023-06-19T02:22:26;26.00;50.00
72905;DHT22;61048;52.162;4.516;2023-06-19T02:24:53;26.00;50.00
72905;DHT22;61048;52.162;4.516;2023-06-19T02:27:19;26.00;50.10
72905;DHT22;61048;52.162;4.516;2023-06-19T02:29:46;26.00;50.20
72905;DHT22;61048;52.162;4.516;2023-06-19T02:32:14;26.00;50.20
72905;DHT22;61048;52.162;4.516;2023-06-19T02:34:41;26.00;50.30
72905;DHT22;61048;52.162;4.516;2023-06-19T02:37:08;26.00;50.30
72905;DHT22;61048;52.162;4.516;2023-06-19T02:39:35;26.00;50.30
72905;DHT22;61048;52.162;4.516;2023-06-19T02:42:02;26.00;50.20
72905;DHT22;61048;52.162;4.516;2023-06-19T02:44:29;26.00;50.40
72905;DHT22;61048;52.162;4.516;2023-06-19T02:46:56;26.00;50.40
72905;DHT22;61048;52.162;4.516;2023-06-19T02:49:24;26.00;50.60
72905;DHT22;61048;52.162;4.516;2023-06-19T02:51:51;26.00;50.70
72905;DHT22;61048;52.162;4.516;2023-06-19T02:54:18;26.00;50.90
72905;DHT22;61048;52.162;4.516;2023-06-19T02:56:44;26.00;50.90
72905;DHT22;61048;52.162;4.516;2023-06-19T02:59:11;26.00;50.80
72905;DHT22;61048;52.162;4.516;2023-06-19T03:01:38;26.00;50.80
72905;DHT22;61048;52.162;4.516;2023-06-19T03:04:05;26.00;51.00
72905;DHT22;61048;52.162;4.516;2023-06-19T03:06:33;26.00;51.20
72905;DHT22;61048;52.162;4.516;2023-06-19T03:09:05;26.00;51.10
72905;DHT22;61048;52.162;4.516;2023-06-19T03:11:37;26.10;51.30
72905;DHT22;61048;52.162;4.516;2023-06-19T03:14:04;26.00;51.10
72905;DHT22;61048;52.162;4.516;2023-06-19T03:16:33;26.00;51.30
72905;DHT22;61048;52.162;4.516;2023-06-19T03:19:00;26.00;51.20
72905;DHT22;61048;52.162;4.516;2023-06-19T03:21:27;26.00;51.50
72905;DHT22;61048;52.162;4.516;2023-06-19T03:23:55;26.00;51.60
72905;DHT22;61048;52.162;4.516;2023-06-19T03:26:23;26.00;51.60
72905;DHT22;61048;52.162;4.516;2023-06-19T03:28:51;26.00;51.70
72905;DHT22;61048;52.162;4.516;2023-06-19T03:31:18;26.00;51.90
72905;DHT22;61048;52.162;4.516;2023-06-19T03:33:45;26.00;51.90
72905;DHT22;61048;52.162;4.516;2023-06-19T03:36:11;26.00;51.70
72905;DHT22;61048;52.162;4.516;2023-06-19T03:38:38;26.10;52.00
72905;DHT22;61048;52.162;4.516;2023-06-19T03:41:07;26.10;52.10
72905;DHT22;61048;52.162;4.516;2023-06-19T03:43:34;26.10;52.10
72905;DHT22;61048;52.162;4.516;2023-06-19T03:46:00;26.10;52.10
72905;DHT22;61048;52.162;4.516;2023-06-19T03:48:27;26.10;52.00
72905;DHT22;61048;52.162;4.516;2023-06-19T03:50:54;26.10;52.20
72905;DHT22;61048;52.162;4.516;2023-06-19T03:53:21;26.10;52.10
72905;DHT22;61048;52.162;4.516;2023-06-19T03:55:48;26.00;52.20
72905;DHT22;61048;52.162;4.516;2023-06-19T03:58:16;26.00;52.30
72905;DHT22;61048;52.162;4.516;2023-06-19T04:00:43;26.10;52.30
72905;DHT22;61048;52.162;4.516;2023-06-19T04:03:10;26.00;52.10
72905;DHT22;61048;52.162;4.516;2023-06-19T04:05:37;26.10;52.30
72905;DHT22;61048;52.162;4.516;2023-06-19T04:08:04;26.00;52.30
72905;DHT22;61048;52.162;4.516;2023-06-19T04:10:31;26.00;52.40
72905;DHT22;61048;52.162;4.516;2023-06-19T04:12:58;26.00;52.30
72905;DHT22;61048;52.162;4.516;2023-06-19T04:15:26;26.10;52.30
72905;DHT22;61048;52.162;4.516;2023-06-19T04:17:53;26.00;52.30
72905;DHT22;61048;52.162;4.516;2023-06-19T04:20:20;26.00;52.20
72905;DHT22;61048;52.162;4.516;2023-06-19T04:22:47;26.00;52.30
72905;DHT22;61048;52.162;4.516;2023-06-19T04:25:14;26.00;52.20
72905;DHT22;61048;52.162;4.516;2023-06-19T04:27:41;26.00;52.40
72905;DHT22;61048;52.162;4.516;2023-06-19T04:30:11;26.00;52.30
72905;DHT22;61048;52.162;4.516;2023-06-19T04:32:39;26.00;52.20
72905;DHT22;61048;52.162;4.516;2023-06-19T04:35:07;26.00;52.30
72905;DHT22;61048;52.162;4.516;2023-06-19T04:37:34;26.00;52.20
72905;DHT22;61048;52.162;4.516;2023-06-19T04:40:01;26.00;52.50
72905;DHT22;61048;52.162;4.516;2023-06-19T04:42:29;26.00;52.60
72905;DHT22;61048;52.162;4.516;2023-06-19T04:44:56;26.00;52.40
72905;DHT22;61048;52.162;4.516;2023-06-19T04:47:24;26.00;52.60
72905;DHT22;61048;52.162;4.516;2023-06-19T04:49:52;26.00;53.00
72905;DHT22;61048;52.162;4.516;2023-06-19T04:52:19;26.00;53.90
72905;DHT22;61048;52.162;4.516;2023-06-19T04:54:46;26.00;53.90
72905;DHT22;61048;52.162;4.516;2023-06-19T04:57:14;26.00;54.30
72905;DHT22;61048;52.162;4.516;2023-06-19T04:59:42;26.10;55.60
72905;DHT22;61048;52.162;4.516;2023-06-19T05:02:09;26.00;55.50
72905;DHT22;61048;52.162;4.516;2023-06-19T05:04:36;25.90;55.80
72905;DHT22;61048;52.162;4.516;2023-06-19T05:07:05;25.80;55.80
72905;DHT22;61048;52.162;4.516;2023-06-19T05:09:32;25.70;55.90
72905;DHT22;61048;52.162;4.516;2023-06-19T05:11:59;25.70;55.90
72905;DHT22;61048;52.162;4.516;2023-06-19T05:14:26;25.70;55.70
72905;DHT22;61048;52.162;4.516;2023-06-19T05:16:53;25.70;55.50
72905;DHT22;61048;52.162;4.516;2023-06-19T05:19:20;25.60;55.80
72905;DHT22;61048;52.162;4.516;2023-06-19T05:21:47;25.60;55.80
72905;DHT22;61048;52.162;4.516;2023-06-19T05:24:15;25.50;55.60
72905;DHT22;61048;52.162;4.516;2023-06-19T05:26:42;25.40;55.70
72905;DHT22;61048;52.162;4.516;2023-06-19T05:29:09;25.40;55.60
72905;DHT22;61048;52.162;4.516;2023-06-19T05:31:36;25.30;55.70
72905;DHT22;61048;52.162;4.516;2023-06-19T05:34:03;25.30;55.90
72905;DHT22;61048;52.162;4.516;2023-06-19T05:36:30;25.20;55.70
72905;DHT22;61048;52.162;4.516;2023-06-19T05:38:57;25.20;55.70
72905;DHT22;61048;52.162;4.516;2023-06-19T05:41:25;25.00;55.30
72905;DHT22;61048;52.162;4.516;2023-06-19T05:43:52;24.90;55.20
72905;DHT22;61048;52.162;4.516;2023-06-19T05:46:19;24.90;54.60
72905;DHT22;61048;52.162;4.516;2023-06-19T05:48:45;24.60;55.30
72905;DHT22;61048;52.162;4.516;2023-06-19T05:51:12;24.50;55.60
72905;DHT22;61048;52.162;4.516;2023-06-19T05:53:39;24.40;55.70
72905;DHT22;61048;52.162;4.516;2023-06-19T05:56:06;24.30;56.80
72905;DHT22;61048;52.162;4.516;2023-06-19T05:58:34;24.30;57.20
72905;DHT22;61048;52.162;4.516;2023-06-19T06:01:01;24.30;57.50
72905;DHT22;61048;52.162;4.516;2023-06-19T06:03:28;24.30;56.50
72905;DHT22;61048;52.162;4.516;2023-06-19T06:05:55;24.40;56.20
72905;DHT22;61048;52.162;4.516;2023-06-19T06:08:28;24.30;55.70
72905;DHT22;61048;52.162;4.516;2023-06-19T06:10:55;24.30;55.80
72905;DHT22;61048;52.162;4.516;2023-06-19T06:13:22;24.30;55.60
72905;DHT22;61048;52.162;4.516;2023-06-19T06:15:50;24.30;55.40
72905;DHT22;61048;52.162;4.516;2023-06-19T06:18:17;24.30;55.30
72905;DHT22;61048;52.162;4.516;2023-06-19T06:20:44;24.30;55.10
72905;DHT22;61048;52.162;4.516;2023-06-19T06:23:11;24.20;55.00
72905;DHT22;61048;52.162;4.516;2023-06-19T06:25:37;24.10;55.20
72905;DHT22;61048;52.162;4.516;2023-06-19T06:28:04;24.10;55.30
72905;DHT22;61048;52.162;4.516;2023-06-19T06:30:31;24.10;55.20
72905;DHT22;61048;52.162;4.516;2023-06-19T06:32:59;24.10;55.20
72905;DHT22;61048;52.162;4.516;2023-06-19T06:35:26;24.10;55.30
72905;DHT22;61048;52.162;4.516;2023-06-19T06:37:54;24.00;55.30
72905;DHT22;61048;52.162;4.516;2023-06-19T06:40:20;24.00;55.20
72905;DHT22;61048;52.162;4.516;2023-06-19T06:42:47;24.00;55.20
72905;DHT22;61048;52.162;4.516;2023-06-19T06:45:14;24.00;55.20
72905;DHT22;61048;52.162;4.516;2023-06-19T06:47:41;24.00;55.00
72905;DHT22;61048;52.162;4.516;2023-06-19T06:50:10;24.00;55.10
72905;DHT22;61048;52.162;4.516;2023-06-19T06:52:37;23.90;55.10
72905;DHT22;61048;52.162;4.516;2023-06-19T06:55:04;23.90;55.40
72905;DHT22;61048;52.162;4.516;2023-06-19T06:57:31;23.90;55.40
72905;DHT22;61048;52.162;4.516;2023-06-19T06:59:59;23.90;55.10
72905;DHT22;61048;52.162;4.516;2023-06-19T07:02:26;24.00;55.00
72905;DHT22;61048;52.162;4.516;2023-06-19T07:04:53;24.00;55.00
72905;DHT22;61048;52.162;4.516;2023-06-19T07:07:21;24.00;54.80
72905;DHT22;61048;52.162;4.516;2023-06-19T07:09:48;24.00;54.80
72905;DHT22;61048;52.162;4.516;2023-06-19T07:12:15;24.00;55.00
72905;DHT22;61048;52.162;4.516;2023-06-19T07:14:41;24.00;55.00
72905;DHT22;61048;52.162;4.516;2023-06-19T07:17:08;24.00;55.00
72905;DHT22;61048;52.162;4.516;2023-06-19T07:19:35;23.90;55.00
72905;DHT22;61048;52.162;4.516;2023-06-19T07:22:02;23.90;55.00
72905;DHT22;61048;52.162;4.516;2023-06-19T07:24:30;23.90;54.80
72905;DHT22;61048;52.162;4.516;2023-06-19T07:26:57;23.90;54.80
72905;DHT22;61048;52.162;4.516;2023-06-19T07:29:24;23.90;54.80
72905;DHT22;61048;52.162;4.516;2023-06-19T07:31:52;23.90;54.70
72905;DHT22;61048;52.162;4.516;2023-06-19T07:34:19;23.90;54.70
72905;DHT22;61048;52.162;4.516;2023-06-19T07:36:47;23.90;54.60
72905;DHT22;61048;52.162;4.516;2023-06-19T07:39:13;23.80;54.90
72905;DHT22;61048;52.162;4.516;2023-06-19T07:41:42;23.80;54.90
72905;DHT22;61048;52.162;4.516;2023-06-19T07:44:10;23.90;54.80
72905;DHT22;61048;52.162;4.516;2023-06-19T07:46:37;23.90;54.80
72905;DHT22;61048;52.162;4.516;2023-06-19T07:49:03;23.90;54.80
72905;DHT22;61048;52.162;4.516;2023-06-19T07:51:30;23.90;54.90
72905;DHT22;61048;52.162;4.516;2023-06-19T07:53:57;23.90;54.80
72905;DHT22;61048;52.162;4.516;2023-06-19T07:56:24;23.90;54.70
72905;DHT22;61048;52.162;4.516;2023-06-19T07:58:52;23.90;54.90
72905;DHT22;61048;52.162;4.516;2023-06-19T08:01:19;23.90;54.80
72905;DHT22;61048;52.162;4.516;2023-06-19T08:03:46;23.90;54.70
72905;DHT22;61048;52.162;4.516;2023-06-19T08:06:13;23.90;54.70
72905;DHT22;61048;52.162;4.516;2023-06-19T08:08:40;23.90;54.90
72905;DHT22;61048;52.162;4.516;2023-06-19T08:11:06;23.90;54.90
72905;DHT22;61048;52.162;4.516;2023-06-19T08:13:33;23.80;54.90
72905;DHT22;61048;52.162;4.516;2023-06-19T08:16:01;23.80;55.00
72905;DHT22;61048;52.162;4.516;2023-06-19T08:18:28;23.80;55.10
72905;DHT22;61048;52.162;4.516;2023-06-19T08:20:55;23.80;54.90
72905;DHT22;61048;52.162;4.516;2023-06-19T08:23:22;23.90;55.00
72905;DHT22;61048;52.162;4.516;2023-06-19T08:25:49;23.80;55.00
72905;DHT22;61048;52.162;4.516;2023-06-19T08:28:16;23.80;55.10
72905;DHT22;61048;52.162;4.516;2023-06-19T08:30:44;23.80;55.10
72905;DHT22;61048;52.162;4.516;2023-06-19T08:33:13;23.90;55.10
72905;DHT22;61048;52.162;4.516;2023-06-19T08:35:39;23.90;55.10
72905;DHT22;61048;52.162;4.516;2023-06-19T08:38:06;24.00;55.00
72905;DHT22;61048;52.162;4.516;2023-06-19T08:40:33;24.00;54.70
72905;DHT22;61048;52.162;4.516;2023-06-19T08:43:00;24.00;54.90
72905;DHT22;61048;52.162;4.516;2023-06-19T08:45:27;24.00;54.80
72905;DHT22;61048;52.162;4.516;2023-06-19T08:47:58;24.00;54.90
72905;DHT22;61048;52.162;4.516;2023-06-19T08:50:26;24.00;54.60
72905;DHT22;61048;52.162;4.516;2023-06-19T08:52:54;24.00;54.90
72905;DHT22;61048;52.162;4.516;2023-06-19T08:55:21;24.00;54.90
72905;DHT22;61048;52.162;4.516;2023-06-19T08:57:49;24.00;54.70
72905;DHT22;61048;52.162;4.516;2023-06-19T09:00:23;24.00;54.50
72905;DHT22;61048;52.162;4.516;2023-06-19T09:02:51;24.00;54.70
72905;DHT22;61048;52.162;4.516;2023-06-19T09:05:19;24.00;54.60
72905;DHT22;61048;52.162;4.516;2023-06-19T09:07:56;24.00;54.50
72905;DHT22;61048;52.162;4.516;2023-06-19T09:10:24;24.00;54.50
72905;DHT22;61048;52.162;4.516;2023-06-19T09:13:01;24.00;54.50
72905;DHT22;61048;52.162;4.516;2023-06-19T09:15:30;24.00;54.60
72905;DHT22;61048;52.162;4.516;2023-06-19T09:18:02;24.00;54.60
72905;DHT22;61048;52.162;4.516;2023-06-19T09:20:29;24.00;54.60
72905;DHT22;61048;52.162;4.516;2023-06-19T09:22:57;24.00;54.50
72905;DHT22;61048;52.162;4.516;2023-06-19T09:25:24;24.10;54.60
72905;DHT22;61048;52.162;4.516;2023-06-19T09:27:52;24.10;54.60
72905;DHT22;61048;52.162;4.516;2023-06-19T09:30:19;24.10;54.50
72905;DHT22;61048;52.162;4.516;2023-06-19T09:32:46;24.10;54.50
72905;DHT22;61048;52.162;4.516;2023-06-19T09:35:13;24.10;54.60
72905;DHT22;61048;52.162;4.516;2023-06-19T09:37:41;24.10;54.50
72905;DHT22;61048;52.162;4.516;2023-06-19T09:40:09;24.10;54.60
72905;DHT22;61048;52.162;4.516;2023-06-19T09:42:38;24.20;54.50
72905;DHT22;61048;52.162;4.516;2023-06-19T09:45:06;24.20;54.50
72905;DHT22;61048;52.162;4.516;2023-06-19T09:47:36;24.20;54.60
72905;DHT22;61048;52.162;4.516;2023-06-19T09:50:04;24.20;54.50
72905;DHT22;61048;52.162;4.516;2023-06-19T09:52:32;24.30;54.50
72905;DHT22;61048;52.162;4.516;2023-06-19T09:55:02;24.30;54.40
72905;DHT22;61048;52.162;4.516;2023-06-19T09:57:32;24.30;54.30
72905;DHT22;61048;52.162;4.516;2023-06-19T10:00:00;24.40;54.20
72905;DHT22;61048;52.162;4.516;2023-06-19T10:02:35;24.40;54.10
72905;DHT22;61048;52.162;4.516;2023-06-19T10:05:02;24.50;54.10
72905;DHT22;61048;52.162;4.516;2023-06-19T10:07:33;24.50;53.90
72905;DHT22;61048;52.162;4.516;2023-06-19T10:10:03;24.50;53.90
72905;DHT22;61048;52.162;4.516;2023-06-19T10:12:37;24.50;53.70
72905;DHT22;61048;52.162;4.516;2023-06-19T10:15:12;24.60;53.60
72905;DHT22;61048;52.162;4.516;2023-06-19T10:17:44;24.60;53.40
72905;DHT22;61048;52.162;4.516;2023-06-19T10:20:28;24.60;53.20
72905;DHT22;61048;52.162;4.516;2023-06-19T10:23:03;24.60;53.00
72905;DHT22;61048;52.162;4.516;2023-06-19T10:25:32;24.60;52.90
72905;DHT22;61048;52.162;4.516;2023-06-19T10:28:01;24.60;52.90
72905;DHT22;61048;52.162;4.516;2023-06-19T10:30:31;24.60;52.80
72905;DHT22;61048;52.162;4.516;2023-06-19T10:33:00;24.60;52.90
72905;DHT22;61048;52.162;4.516;2023-06-19T10:35:36;24.70;52.90
72905;DHT22;61048;52.162;4.516;2023-06-19T10:38:04;24.70;52.60
72905;DHT22;61048;52.162;4.516;2023-06-19T10:40:31;24.70;52.50
72905;DHT22;61048;52.162;4.516;2023-06-19T10:42:59;24.70;52.30
72905;DHT22;61048;52.162;4.516;2023-06-19T10:45:26;24.70;52.20
72905;DHT22;61048;52.162;4.516;2023-06-19T10:47:54;24.80;52.10
72905;DHT22;61048;52.162;4.516;2023-06-19T10:50:22;24.80;52.20
72905;DHT22;61048;52.162;4.516;2023-06-19T10:52:52;24.80;52.20
72905;DHT22;61048;52.162;4.516;2023-06-19T10:55:20;24.80;52.20
72905;DHT22;61048;52.162;4.516;2023-06-19T10:57:49;24.80;52.20
72905;DHT22;61048;52.162;4.516;2023-06-19T11:00:26;24.80;52.10
72905;DHT22;61048;52.162;4.516;2023-06-19T11:02:54;24.90;52.00
72905;DHT22;61048;52.162;4.516;2023-06-19T11:05:21;24.90;52.00
72905;DHT22;61048;52.162;4.516;2023-06-19T11:07:53;24.90;51.70
72905;DHT22;61048;52.162;4.516;2023-06-19T11:10:20;24.90;51.60
72905;DHT22;61048;52.162;4.516;2023-06-19T11:12:48;24.90;51.60
72905;DHT22;61048;52.162;4.516;2023-06-19T11:15:15;24.90;51.50
72905;DHT22;61048;52.162;4.516;2023-06-19T11:17:43;24.90;51.50
72905;DHT22;61048;52.162;4.516;2023-06-19T11:20:11;25.00;51.30
72905;DHT22;61048;52.162;4.516;2023-06-19T11:22:39;25.00;51.40
72905;DHT22;61048;52.162;4.516;2023-06-19T11:25:08;25.00;51.20
72905;DHT22;61048;52.162;4.516;2023-06-19T11:27:38;25.00;51.20
72905;DHT22;61048;52.162;4.516;2023-06-19T11:30:06;25.00;51.20
72905;DHT22;61048;52.162;4.516;2023-06-19T11:32:36;25.00;51.30
72905;DHT22;61048;52.162;4.516;2023-06-19T11:35:09;25.10;51.30
72905;DHT22;61048;52.162;4.516;2023-06-19T11:37:39;25.10;51.30
72905;DHT22;61048;52.162;4.516;2023-06-19T11:40:07;25.10;51.40
72905;DHT22;61048;52.162;4.516;2023-06-19T11:42:51;25.10;51.40
72905;DHT22;61048;52.162;4.516;2023-06-19T11:45:19;25.10;51.30
72905;DHT22;61048;52.162;4.516;2023-06-19T11:47:46;25.20;51.30
72905;DHT22;61048;52.162;4.516;2023-06-19T11:50:15;25.20;51.30
72905;DHT22;61048;52.162;4.516;2023-06-19T11:52:43;25.20;51.30
72905;DHT22;61048;52.162;4.516;2023-06-19T11:55:11;25.20;51.30
72905;DHT22;61048;52.162;4.516;2023-06-19T11:57:38;25.30;51.20
72905;DHT22;61048;52.162;4.516;2023-06-19T12:00:16;25.30;51.20
72905;DHT22;61048;52.162;4.516;2023-06-19T12:02:44;25.40;51.20
72905;DHT22;61048;52.162;4.516;2023-06-19T12:05:12;25.40;51.10
72905;DHT22;61048;52.162;4.516;2023-06-19T12:07:41;25.40;51.00
72905;DHT22;61048;52.162;4.516;2023-06-19T12:10:08;25.40;50.90
72905;DHT22;61048;52.162;4.516;2023-06-19T12:12:37;25.40;50.90
72905;DHT22;61048;52.162;4.516;2023-06-19T12:15:05;25.40;50.80
72905;DHT22;61048;52.162;4.516;2023-06-19T12:17:32;25.50;50.70
72905;DHT22;61048;52.162;4.516;2023-06-19T12:19:59;25.50;50.60
72905;DHT22;61048;52.162;4.516;2023-06-19T12:22:26;25.50;50.50
72905;DHT22;61048;52.162;4.516;2023-06-19T12:24:55;25.60;50.40
72905;DHT22;61048;52.162;4.516;2023-06-19T12:27:22;25.60;50.40
72905;DHT22;61048;52.162;4.516;2023-06-19T12:29:49;25.60;50.40
72905;DHT22;61048;52.162;4.516;2023-06-19T12:32:16;25.60;50.50
72905;DHT22;61048;52.162;4.516;2023-06-19T12:34:43;25.60;50.50
72905;DHT22;61048;52.162;4.516;2023-06-19T12:37:13;25.60;50.50
72905;DHT22;61048;52.162;4.516;2023-06-19T12:39:40;25.60;50.50
72905;DHT22;61048;52.162;4.516;2023-06-19T12:42:09;25.60;50.60
72905;DHT22;61048;52.162;4.516;2023-06-19T12:44:37;25.60;50.60
72905;DHT22;61048;52.162;4.516;2023-06-19T12:47:05;25.70;50.70
72905;DHT22;61048;52.162;4.516;2023-06-19T12:49:32;25.70;50.70
72905;DHT22;61048;52.162;4.516;2023-06-19T12:51:59;25.70;50.60
72905;DHT22;61048;52.162;4.516;2023-06-19T12:54:26;25.70;50.70
72905;DHT22;61048;52.162;4.516;2023-06-19T12:56:53;25.70;50.70
72905;DHT22;61048;52.162;4.516;2023-06-19T12:59:22;25.70;50.70
72905;DHT22;61048;52.162;4.516;2023-06-19T13:01:48;25.70;50.70
72905;DHT22;61048;52.162;4.516;2023-06-19T13:04:15;25.80;50.70
72905;DHT22;61048;52.162;4.516;2023-06-19T13:06:42;25.80;50.70
72905;DHT22;61048;52.162;4.516;2023-06-19T13:09:09;25.80;50.60
72905;DHT22;61048;52.162;4.516;2023-06-19T13:11:36;25.80;50.70
72905;DHT22;61048;52.162;4.516;2023-06-19T13:14:03;25.80;50.70
72905;DHT22;61048;52.162;4.516;2023-06-19T13:16:32;25.80;50.60
72905;DHT22;61048;52.162;4.516;2023-06-19T13:18:59;25.90;50.50
72905;DHT22;61048;52.162;4.516;2023-06-19T13:21:25;25.90;50.30
72905;DHT22;61048;52.162;4.516;2023-06-19T13:23:52;25.90;50.20
72905;DHT22;61048;52.162;4.516;2023-06-19T13:26:19;25.90;49.80
72905;DHT22;61048;52.162;4.516;2023-06-19T13:28:46;25.90;49.50
72905;DHT22;61048;52.162;4.516;2023-06-19T13:31:13;25.90;49.40
72905;DHT22;61048;52.162;4.516;2023-06-19T13:33:41;26.00;49.20
72905;DHT22;61048;52.162;4.516;2023-06-19T13:36:08;26.00;49.10
72905;DHT22;61048;52.162;4.516;2023-06-19T13:38:35;26.00;48.80
72905;DHT22;61048;52.162;4.516;2023-06-19T13:41:02;26.00;48.50
72905;DHT22;61048;52.162;4.516;2023-06-19T13:43:29;26.00;48.50
72905;DHT22;61048;52.162;4.516;2023-06-19T13:45:56;26.00;48.20
72905;DHT22;61048;52.162;4.516;2023-06-19T13:48:23;26.00;47.80
72905;DHT22;61048;52.162;4.516;2023-06-19T13:50:51;26.00;47.80
72905;DHT22;61048;52.162;4.516;2023-06-19T13:53:18;26.00;47.60
72905;DHT22;61048;52.162;4.516;2023-06-19T13:55:47;26.00;47.50
72905;DHT22;61048;52.162;4.516;2023-06-19T13:58:14;26.10;47.20
72905;DHT22;61048;52.162;4.516;2023-06-19T14:00:40;26.10;47.10
72905;DHT22;61048;52.162;4.516;2023-06-19T14:03:07;26.10;47.00
72905;DHT22;61048;52.162;4.516;2023-06-19T14:05:34;26.10;47.10
72905;DHT22;61048;52.162;4.516;2023-06-19T14:08:03;26.10;47.00
72905;DHT22;61048;52.162;4.516;2023-06-19T14:10:30;26.10;47.00
72905;DHT22;61048;52.162;4.516;2023-06-19T14:12:58;26.10;46.90
72905;DHT22;61048;52.162;4.516;2023-06-19T14:15:24;26.10;46.90
72905;DHT22;61048;52.162;4.516;2023-06-19T14:17:51;26.10;46.80
72905;DHT22;61048;52.162;4.516;2023-06-19T14:20:18;26.20;46.80
72905;DHT22;61048;52.162;4.516;2023-06-19T14:22:45;26.20;46.90
72905;DHT22;61048;52.162;4.516;2023-06-19T14:25:13;26.20;46.90
72905;DHT22;61048;52.162;4.516;2023-06-19T14:27:40;26.20;46.80
72905;DHT22;61048;52.162;4.516;2023-06-19T14:30:08;26.20;46.80
72905;DHT22;61048;52.162;4.516;2023-06-19T14:32:35;26.20;46.80
72905;DHT22;61048;52.162;4.516;2023-06-19T14:35:02;26.20;46.90
72905;DHT22;61048;52.162;4.516;2023-06-19T14:37:29;26.30;46.90
72905;DHT22;61048;52.162;4.516;2023-06-19T14:39:57;26.30;47.20
72905;DHT22;61048;52.162;4.516;2023-06-19T14:42:25;26.30;47.20
72905;DHT22;61048;52.162;4.516;2023-06-19T14:44:52;26.30;47.20
72905;DHT22;61048;52.162;4.516;2023-06-19T14:47:19;26.40;47.30
72905;DHT22;61048;52.162;4.516;2023-06-19T14:49:46;26.40;47.20
72905;DHT22;61048;52.162;4.516;2023-06-19T14:52:13;26.40;47.00
72905;DHT22;61048;52.162;4.516;2023-06-19T14:54:40;26.40;47.20
72905;DHT22;61048;52.162;4.516;2023-06-19T14:57:07;26.40;47.20
72905;DHT22;61048;52.162;4.516;2023-06-19T14:59:35;26.40;47.30
72905;DHT22;61048;52.162;4.516;2023-06-19T15:02:03;26.50;47.10
72905;DHT22;61048;52.162;4.516;2023-06-19T15:04:32;26.50;46.90
72905;DHT22;61048;52.162;4.516;2023-06-19T15:06:59;26.50;46.90
72905;DHT22;61048;52.162;4.516;2023-06-19T15:09:26;26.50;46.90
72905;DHT22;61048;52.162;4.516;2023-06-19T15:11:53;26.50;46.90
72905;DHT22;61048;52.162;4.516;2023-06-19T15:14:20;26.50;46.80
72905;DHT22;61048;52.162;4.516;2023-06-19T15:16:48;26.60;46.80
72905;DHT22;61048;52.162;4.516;2023-06-19T15:19:15;26.60;46.70
72905;DHT22;61048;52.162;4.516;2023-06-19T15:21:42;26.60;46.50
72905;DHT22;61048;52.162;4.516;2023-06-19T15:24:09;26.60;46.40
72905;DHT22;61048;52.162;4.516;2023-06-19T15:26:35;26.60;46.40
72905;DHT22;61048;52.162;4.516;2023-06-19T15:29:02;26.60;46.30
72905;DHT22;61048;52.162;4.516;2023-06-19T15:31:29;26.60;46.10
72905;DHT22;61048;52.162;4.516;2023-06-19T15:33:57;26.70;46.00